Time;durP1;ratioP1;P1;durP2;ratioP2;P2;SDS_P1;SDS_P2;PMS_P1;PMS_P2;Temp;Humidity;BMP_temperature;BMP_pressure;BME280_temperature;BME280_humidity;BME280_pressure;Samples;Min_cycle;Max_cycle;Signal;HPM_P1;HPM_P2
2022/04/09 00:02:21;;;;;;;9.65;3.58;;;;;;;;;;5034190;28;20088;-63
2022/04/09 00:04:47;;;;;;;4.00;2.35;;;;;;;;;;5029387;28;20053;-64
2022/04/09 00:07:13;;;;;;;7.40;3.10;;;;;;;;;;5032173;28;20037;-63
2022/04/09 00:09:39;;;;;;;6.00;2.90;;;;;;;;;;5032444;28;20128;-63
2022/04/09 00:12:05;;;;;;;5.22;2.65;;;;;;;;;;5032650;28;20515;-63
2022/04/09 00:14:31;;;;;;;6.97;2.83;;;;;;;;;;5029617;28;20044;-63
2022/04/09 00:16:56;;;;;;;3.10;2.40;;;;;;;;;;5032559;28;20017;-63
2022/04/09 00:19:22;;;;;;;5.07;2.42;;;;;;;;;;5031912;28;20050;-62
2022/04/09 00:21:47;;;;;;;5.97;3.10;;;;;;;;;;5029141;28;20025;-62
2022/04/09 00:24:13;;;;;;;9.80;3.58;;;;;;;;;;5031907;28;20029;-63
2022/04/09 00:26:39;;;;;;;10.05;4.22;;;;;;;;;;5032571;28;20072;-63
2022/04/09 00:29:06;;;;;;;16.48;4.82;;;;;;;;;;5023523;28;20029;-63
2022/04/09 00:31:32;;;;;;;4.57;2.80;;;;;;;;;;5032195;28;20025;-63
2022/04/09 00:33:58;;;;;;;3.60;2.60;;;;;;;;;;5033166;28;20028;-64
2022/04/09 00:36:24;;;;;;;4.68;2.30;;;;;;;;;;5032743;28;20033;-63
2022/04/09 00:38:50;;;;;;;7.47;2.90;;;;;;;;;;5033608;28;20512;-63
2022/04/09 00:41:15;;;;;;;7.75;3.10;;;;;;;;;;5033621;28;20036;-63
2022/04/09 00:43:42;;;;;;;5.93;3.00;;;;;;;;;;5033478;28;20029;-63
2022/04/09 00:46:11;;;;;;;5.10;2.75;;;;;;;;;;5032645;28;20083;-63
2022/04/09 00:48:37;;;;;;;6.45;2.95;;;;;;;;;;5032944;28;20028;-63
2022/04/09 00:51:03;;;;;;;6.50;3.17;;;;;;;;;;5033158;28;20538;-63
2022/04/09 00:53:39;;;;;;;7.35;3.75;;;;;;;;;;5025580;28;20059;-63
2022/04/09 00:56:20;;;;;;;9.23;3.58;;;;;;;;;;5033136;28;20389;-63
2022/04/09 00:58:56;;;;;;;6.65;3.35;;;;;;;;;;5033053;28;20037;-63
2022/04/09 01:01:24;;;;;;;6.15;3.17;;;;;;;;;;5033167;28;20029;-62
2022/04/09 01:03:53;;;;;;;6.68;3.00;;;;;;;;;;5033038;28;20029;-63
2022/04/09 01:06:19;;;;;;;5.53;2.78;;;;;;;;;;5032511;28;20064;-63
2022/04/09 01:08:45;;;;;;;6.18;2.90;;;;;;;;;;5028292;28;20013;-63
2022/04/09 01:11:15;;;;;;;5.13;2.40;;;;;;;;;;5030792;28;20096;-63
2022/04/09 01:13:42;;;;;;;6.40;2.40;;;;;;;;;;5033025;28;20445;-62
2022/04/09 01:16:08;;;;;;;8.57;3.30;;;;;;;;;;5033206;28;20025;-62
2022/04/09 01:18:34;;;;;;;7.13;3.08;;;;;;;;;;5025651;28;20471;-62
2022/04/09 01:21:00;;;;;;;5.38;2.83;;;;;;;;;;5032317;28;20052;-63
2022/04/09 01:23:27;;;;;;;5.13;2.55;;;;;;;;;;5032815;28;20410;-63
2022/04/09 01:25:55;;;;;;;11.77;3.58;;;;;;;;;;5032630;28;20474;-63
2022/04/09 01:28:20;;;;;;;12.20;3.53;;;;;;;;;;5032716;28;20075;-63
2022/04/09 01:30:46;;;;;;;10.57;3.67;;;;;;;;;;5032845;28;20061;-61
2022/04/09 01:33:19;;;;;;;7.68;2.83;;;;;;;;;;5032357;28;20025;-62
2022/04/09 01:35:45;;;;;;;9.50;4.10;;;;;;;;;;5031883;28;20082;-63
2022/04/09 01:38:11;;;;;;;8.63;3.17;;;;;;;;;;5032866;28;20033;-63
2022/04/09 01:40:37;;;;;;;14.02;4.60;;;;;;;;;;5031851;28;20021;-61
2022/04/09 01:43:03;;;;;;;12.90;4.15;;;;;;;;;;5026287;28;20056;-62
2022/04/09 01:45:28;;;;;;;13.55;4.40;;;;;;;;;;5032568;28;20025;-62
2022/04/09 01:47:55;;;;;;;14.07;4.45;;;;;;;;;;5032334;28;20032;-63
2022/04/09 01:50:26;;;;;;;11.75;4.43;;;;;;;;;;5032220;28;20033;-62
2022/04/09 01:52:54;;;;;;;14.60;5.10;;;;;;;;;;5032505;28;20486;-62
2022/04/09 01:55:21;;;;;;;10.68;4.13;;;;;;;;;;5032509;28;20025;-63
2022/04/09 01:57:47;;;;;;;9.57;4.28;;;;;;;;;;5028602;28;20080;-62
2022/04/09 02:00:14;;;;;;;11.70;4.60;;;;;;;;;;5027988;28;20029;-63
2022/04/09 02:02:40;;;;;;;10.00;4.13;;;;;;;;;;5036472;28;20064;-62
2022/04/09 02:05:06;;;;;;;13.35;4.10;;;;;;;;;;5036671;28;20033;-63
2022/04/09 02:07:32;;;;;;;12.88;3.78;;;;;;;;;;5028270;28;20040;-63
2022/04/09 02:09:57;;;;;;;9.88;3.83;;;;;;;;;;5035864;28;20037;-63
2022/04/09 02:12:23;;;;;;;12.35;4.13;;;;;;;;;;5036203;28;20025;-63
2022/04/09 02:14:49;;;;;;;11.25;5.90;;;;;;;;;;5036396;28;20025;-63
2022/04/09 02:17:14;;;;;;;18.45;7.88;;;;;;;;;;5035990;28;20424;-63
2022/04/09 02:19:40;;;;;;;14.93;6.70;;;;;;;;;;5035937;28;20122;-63
2022/04/09 02:22:06;;;;;;;9.05;5.28;;;;;;;;;;5035949;28;20036;-63
2022/04/09 02:24:32;;;;;;;8.48;4.10;;;;;;;;;;5035087;28;20025;-64
2022/04/09 02:26:57;;;;;;;5.72;2.63;;;;;;;;;;5036238;28;20036;-63
2022/04/09 02:29:23;;;;;;;8.35;3.42;;;;;;;;;;5036337;28;20034;-63
2022/04/09 02:31:49;;;;;;;6.90;3.00;;;;;;;;;;5028617;28;20041;-64
2022/04/09 02:34:15;;;;;;;4.10;2.20;;;;;;;;;;5035941;28;20021;-63
2022/04/09 02:36:40;;;;;;;5.47;2.58;;;;;;;;;;5035629;28;20390;-62
2022/04/09 02:39:06;;;;;;;5.53;2.05;;;;;;;;;;5035868;28;20521;-63
2022/04/09 02:41:32;;;;;;;7.10;2.42;;;;;;;;;;5035781;28;20025;-63
2022/04/09 02:43:57;;;;;;;3.33;2.33;;;;;;;;;;5035779;28;20387;-63
2022/04/09 02:46:24;;;;;;;4.43;2.50;;;;;;;;;;5034738;28;20060;-63
2022/04/09 02:48:50;;;;;;;10.27;3.28;;;;;;;;;;5027874;28;20030;-62
2022/04/09 02:51:16;;;;;;;3.92;2.47;;;;;;;;;;5035093;28;20187;-61
2022/04/09 02:53:41;;;;;;;6.40;2.70;;;;;;;;;;5035758;28;20025;-63
2022/04/09 02:56:07;;;;;;;6.25;2.65;;;;;;;;;;5035760;28;20336;-63
2022/04/09 02:58:32;;;;;;;7.53;4.18;;;;;;;;;;5035625;28;20033;-63
2022/04/09 03:00:58;;;;;;;6.90;3.58;;;;;;;;;;5035394;28;20034;-63
2022/04/09 03:03:23;;;;;;;6.90;2.95;;;;;;;;;;5035787;28;20021;-63
2022/04/09 03:05:49;;;;;;;6.80;3.00;;;;;;;;;;5035503;28;20026;-63
2022/04/09 03:08:14;;;;;;;9.35;3.65;;;;;;;;;;5035596;28;20464;-63
2022/04/09 03:10:40;;;;;;;8.93;3.40;;;;;;;;;;5035517;28;20030;-64
2022/04/09 03:13:05;;;;;;;8.82;3.53;;;;;;;;;;5034305;28;20026;-63
2022/04/09 03:15:31;;;;;;;6.90;2.67;;;;;;;;;;5035243;28;20030;-63
2022/04/09 03:17:57;;;;;;;8.35;3.22;;;;;;;;;;5035101;28;20526;-63
2022/04/09 03:20:22;;;;;;;7.95;2.50;;;;;;;;;;5034872;28;20046;-63
2022/04/09 03:22:48;;;;;;;8.65;2.85;;;;;;;;;;5035254;28;20025;-64
2022/04/09 03:25:15;;;;;;;8.55;3.20;;;;;;;;;;5035346;28;20444;-62
2022/04/09 03:27:42;;;;;;;3.55;2.17;;;;;;;;;;5035069;28;20091;-63
2022/04/09 03:30:08;;;;;;;5.50;2.50;;;;;;;;;;5034974;28;20033;-63
2022/04/09 03:32:38;;;;;;;6.60;2.33;;;;;;;;;;5035097;28;20029;-63
2022/04/09 03:35:07;;;;;;;6.47;2.57;;;;;;;;;;5035063;28;20497;-63
2022/04/09 03:37:37;;;;;;;11.33;2.77;;;;;;;;;;5034619;28;20109;-63
2022/04/09 03:40:04;;;;;;;7.13;2.80;;;;;;;;;;5034793;28;20056;-63
2022/04/09 03:42:30;;;;;;;7.43;3.25;;;;;;;;;;5034609;28;20021;-63
2022/04/09 03:44:56;;;;;;;9.57;2.78;;;;;;;;;;5034660;28;20040;-63
2022/04/09 03:47:22;;;;;;;4.82;2.88;;;;;;;;;;5034617;28;20031;-63
2022/04/09 03:49:47;;;;;;;9.13;3.30;;;;;;;;;;5034941;28;20057;-63
2022/04/09 03:52:13;;;;;;;7.25;2.88;;;;;;;;;;5034665;28;20028;-63
2022/04/09 03:54:39;;;;;;;7.25;2.80;;;;;;;;;;5034561;28;20032;-63
2022/04/09 03:57:05;;;;;;;9.27;2.50;;;;;;;;;;5034554;28;20112;-63
2022/04/09 03:59:31;;;;;;;6.50;2.55;;;;;;;;;;5033939;28;20029;-62
2022/04/09 04:01:56;;;;;;;9.50;2.50;;;;;;;;;;5034087;28;20076;-63
2022/04/09 04:04:22;;;;;;;6.50;2.22;;;;;;;;;;5034478;28;20026;-63
2022/04/09 04:06:48;;;;;;;5.32;2.20;;;;;;;;;;5034289;28;20072;-63
2022/04/09 04:09:16;;;;;;;6.18;2.20;;;;;;;;;;5034361;28;20034;-63
2022/04/09 04:11:44;;;;;;;4.97;2.38;;;;;;;;;;5034296;28;20047;-62
2022/04/09 04:14:10;;;;;;;6.13;2.53;;;;;;;;;;5034149;28;20080;-63
2022/04/09 04:16:35;;;;;;;4.40;2.25;;;;;;;;;;5034218;28;20474;-62
2022/04/09 04:19:01;;;;;;;4.82;2.15;;;;;;;;;;4992680;28;20071;-63
2022/04/09 04:21:27;;;;;;;12.30;2.33;;;;;;;;;;5034101;28;20037;-63
2022/04/09 04:23:52;;;;;;;7.43;2.03;;;;;;;;;;5033688;28;20036;-62
2022/04/09 04:26:18;;;;;;;5.43;1.88;;;;;;;;;;5033904;28;20022;-63
2022/04/09 04:28:48;;;;;;;10.18;1.98;;;;;;;;;;5033753;28;20082;-61
2022/04/09 04:31:17;;;;;;;5.88;1.88;;;;;;;;;;5033954;28;20076;-62
2022/04/09 04:33:43;;;;;;;7.10;2.15;;;;;;;;;;5033900;28;20068;-61
2022/04/09 04:36:09;;;;;;;7.85;2.08;;;;;;;;;;5033992;28;20069;-61
2022/04/09 04:38:34;;;;;;;4.97;1.77;;;;;;;;;;5033835;28;20048;-61
2022/04/09 04:41:01;;;;;;;6.93;2.10;;;;;;;;;;5034014;28;20102;-62
2022/04/09 04:43:26;;;;;;;5.18;2.40;;;;;;;;;;5033533;28;20386;-61
2022/04/09 04:45:52;;;;;;;9.60;2.08;;;;;;;;;;5033541;28;20025;-61
2022/04/09 04:48:20;;;;;;;8.38;2.65;;;;;;;;;;5033736;28;20120;-62
2022/04/09 04:50:46;;;;;;;8.77;2.30;;;;;;;;;;5033620;28;20028;-63
2022/04/09 04:53:11;;;;;;;4.30;1.95;;;;;;;;;;5033464;28;20022;-63
2022/04/09 04:55:37;;;;;;;8.02;2.85;;;;;;;;;;5033475;28;20028;-63
2022/04/09 04:58:03;;;;;;;9.57;5.50;;;;;;;;;;5033058;28;20026;-63
2022/04/09 05:00:28;;;;;;;10.25;4.22;;;;;;;;;;5033374;28;20166;-62
2022/04/09 05:02:54;;;;;;;2.78;1.90;;;;;;;;;;5033337;28;20084;-63
2022/04/09 05:05:20;;;;;;;9.35;1.90;;;;;;;;;;5033311;28;20422;-62
2022/04/09 05:07:47;;;;;;;5.75;1.67;;;;;;;;;;5033141;28;20037;-63
2022/04/09 05:10:17;;;;;;;6.35;1.60;;;;;;;;;;5032083;28;20092;-63
2022/04/09 05:12:43;;;;;;;7.13;1.92;;;;;;;;;;5032976;28;20030;-63
2022/04/09 05:15:11;;;;;;;9.38;2.05;;;;;;;;;;5033170;28;20040;-61
2022/04/09 05:17:36;;;;;;;4.78;1.77;;;;;;;;;;5033019;28;20423;-62
2022/04/09 05:20:04;;;;;;;8.25;2.15;;;;;;;;;;5033048;28;20053;-64
2022/04/09 05:22:30;;;;;;;7.25;2.20;;;;;;;;;;5032993;28;20038;-63
2022/04/09 05:24:56;;;;;;;6.07;1.77;;;;;;;;;;5033003;28;20095;-62
2022/04/09 05:27:23;;;;;;;5.13;2.05;;;;;;;;;;5032828;28;20460;-63
2022/04/09 05:29:50;;;;;;;5.72;1.70;;;;;;;;;;5032969;28;20033;-62
2022/04/09 05:32:15;;;;;;;4.43;1.50;;;;;;;;;;5032961;28;20021;-63
2022/04/09 05:34:41;;;;;;;6.65;2.10;;;;;;;;;;5032492;28;20029;-63
2022/04/09 05:37:06;;;;;;;1.50;1.15;;;;;;;;;;5032567;28;20035;-63
2022/04/09 05:39:32;;;;;;;6.00;1.60;;;;;;;;;;5032940;28;20056;-62
2022/04/09 05:41:57;;;;;;;8.52;2.20;;;;;;;;;;5032429;28;20022;-63
2022/04/09 05:44:23;;;;;;;9.35;1.52;;;;;;;;;;5032784;28;20100;-63
2022/04/09 05:46:48;;;;;;;9.57;2.08;;;;;;;;;;5032708;28;20030;-62
2022/04/09 05:49:14;;;;;;;8.57;2.00;;;;;;;;;;5031737;28;20033;-63
2022/04/09 05:51:39;;;;;;;5.93;1.55;;;;;;;;;;5032624;28;20037;-63
2022/04/09 05:54:05;;;;;;;4.32;1.70;;;;;;;;;;5032804;28;20064;-63
2022/04/09 05:56:31;;;;;;;10.65;2.00;;;;;;;;;;5032586;28;20022;-63
2022/04/09 05:58:56;;;;;;;6.18;1.77;;;;;;;;;;5032516;28;20444;-62
2022/04/09 06:01:22;;;;;;;4.68;1.60;;;;;;;;;;5032639;28;20032;-62
2022/04/09 06:03:47;;;;;;;6.65;1.67;;;;;;;;;;5032683;28;20080;-63
2022/04/09 06:06:13;;;;;;;11.48;1.92;;;;;;;;;;5032475;28;20030;-62
2022/04/09 06:08:39;;;;;;;5.82;1.55;;;;;;;;;;5032436;28;20025;-63
2022/04/09 06:11:05;;;;;;;12.40;2.28;;;;;;;;;;5032608;28;20471;-62
2022/04/09 06:13:31;;;;;;;5.63;1.85;;;;;;;;;;5032675;28;20093;-63
2022/04/09 06:15:57;;;;;;;6.40;1.88;;;;;;;;;;5032453;28;20070;-62
2022/04/09 06:18:23;;;;;;;7.05;1.83;;;;;;;;;;5032257;28;20053;-63
2022/04/09 06:20:48;;;;;;;8.68;2.20;;;;;;;;;;5032021;28;20072;-63
2022/04/09 06:23:14;;;;;;;8.48;2.33;;;;;;;;;;5032053;28;20041;-62
2022/04/09 06:25:40;;;;;;;8.02;1.90;;;;;;;;;;5032631;28;20056;-63
2022/04/09 06:28:07;;;;;;;9.68;2.35;;;;;;;;;;5032321;28;20026;-62
2022/04/09 06:30:32;;;;;;;8.63;3.03;;;;;;;;;;5032372;28;20107;-63
2022/04/09 06:32:58;;;;;;;7.82;1.60;;;;;;;;;;5032417;28;20471;-63
2022/04/09 06:35:24;;;;;;;8.10;1.70;;;;;;;;;;5032334;28;20029;-63
2022/04/09 06:37:50;;;;;;;11.38;2.33;;;;;;;;;;5032082;28;20080;-63
2022/04/09 06:40:16;;;;;;;10.15;2.50;;;;;;;;;;5030975;28;20471;-62
2022/04/09 06:42:42;;;;;;;9.60;1.98;;;;;;;;;;5032346;28;20025;-62
2022/04/09 06:45:09;;;;;;;10.15;2.22;;;;;;;;;;5032312;28;20372;-62
2022/04/09 06:47:38;;;;;;;5.05;1.48;;;;;;;;;;5034742;28;20030;-62
2022/04/09 06:50:11;;;;;;;12.20;2.53;;;;;;;;;;5035934;28;20076;-62
2022/04/09 06:52:38;;;;;;;5.28;1.90;;;;;;;;;;5035658;28;20437;-63
2022/04/09 06:55:04;;;;;;;10.57;3.00;;;;;;;;;;5035742;28;20029;-62
2022/04/09 06:57:32;;;;;;;5.97;2.10;;;;;;;;;;5035421;28;20109;-63
2022/04/09 06:59:59;;;;;;;6.95;2.17;;;;;;;;;;5035655;28;20037;-62
2022/04/09 07:02:25;;;;;;;5.80;1.90;;;;;;;;;;5035655;28;20410;-64
2022/04/09 07:04:51;;;;;;;10.15;2.50;;;;;;;;;;5035489;28;20108;-64
2022/04/09 07:07:24;;;;;;;12.20;3.65;;;;;;;;;;5034995;28;20091;-64
2022/04/09 07:09:50;;;;;;;6.90;2.17;;;;;;;;;;5035420;28;20029;-63
2022/04/09 07:12:16;;;;;;;4.03;1.73;;;;;;;;;;5035223;28;20017;-64
2022/04/09 07:14:41;;;;;;;8.60;2.38;;;;;;;;;;5035475;28;20033;-63
2022/04/09 07:17:07;;;;;;;9.15;3.22;;;;;;;;;;5035241;28;20079;-64
2022/04/09 07:19:33;;;;;;;11.45;2.20;;;;;;;;;;5034692;28;20160;-64
2022/04/09 07:21:59;;;;;;;11.15;2.55;;;;;;;;;;5034891;28;20032;-62
2022/04/09 07:24:24;;;;;;;10.10;2.42;;;;;;;;;;5034976;28;20029;-62
2022/04/09 07:26:50;;;;;;;7.78;2.35;;;;;;;;;;5035001;28;20112;-64
2022/04/09 07:29:16;;;;;;;8.15;2.40;;;;;;;;;;5035011;28;20116;-63
2022/04/09 07:31:42;;;;;;;7.43;2.20;;;;;;;;;;5035048;28;20036;-63
2022/04/09 07:34:07;;;;;;;7.25;2.28;;;;;;;;;;5034003;28;20026;-62
2022/04/09 07:36:33;;;;;;;6.90;1.80;;;;;;;;;;5033959;28;20029;-64
2022/04/09 07:38:59;;;;;;;5.80;2.13;;;;;;;;;;5034408;28;20494;-64
2022/04/09 07:41:24;;;;;;;4.10;2.13;;;;;;;;;;5034045;28;20025;-63
2022/04/09 07:43:50;;;;;;;5.20;1.92;;;;;;;;;;5023418;28;20657;-64
2022/04/09 07:46:15;;;;;;;11.52;2.53;;;;;;;;;;5034635;28;20056;-62
2022/04/09 07:48:41;;;;;;;11.52;2.35;;;;;;;;;;5034698;28;20052;-61
2022/04/09 07:51:06;;;;;;;6.25;1.50;;;;;;;;;;5028757;28;20037;-63
2022/04/09 07:53:32;;;;;;;7.90;2.20;;;;;;;;;;5022494;28;20025;-63
2022/04/09 07:55:58;;;;;;;12.93;2.38;;;;;;;;;;5024383;28;20587;-64
2022/04/09 07:58:23;;;;;;;13.32;2.15;;;;;;;;;;5033233;28;20484;-63
2022/04/09 08:00:49;;;;;;;9.07;2.17;;;;;;;;;;5033746;28;20017;-63
2022/04/09 08:03:15;;;;;;;12.50;2.35;;;;;;;;;;5033684;28;20051;-62
2022/04/09 08:05:41;;;;;;;13.63;2.05;;;;;;;;;;5022738;28;20471;-62
2022/04/09 08:08:08;;;;;;;8.50;1.77;;;;;;;;;;5024851;28;20018;-64
2022/04/09 08:10:34;;;;;;;9.38;2.20;;;;;;;;;;5024389;28;20532;-64
2022/04/09 08:13:00;;;;;;;10.30;2.10;;;;;;;;;;5024360;28;20467;-64
2022/04/09 08:15:26;;;;;;;6.03;1.67;;;;;;;;;;5022702;28;20072;-64
2022/04/09 08:17:56;;;;;;;8.35;2.10;;;;;;;;;;5023984;28;20030;-63
2022/04/09 08:20:22;;;;;;;5.80;1.85;;;;;;;;;;5028923;28;20048;-64
2022/04/09 08:22:49;;;;;;;7.45;2.00;;;;;;;;;;5023177;28;20540;-62
2022/04/09 08:25:16;;;;;;;6.30;1.65;;;;;;;;;;5032394;28;20022;-63
2022/04/09 08:27:43;;;;;;;3.53;1.50;;;;;;;;;;5047334;28;20367;-62
2022/04/09 08:30:10;;;;;;;3.47;1.52;;;;;;;;;;5035760;28;20032;-62
2022/04/09 08:32:36;;;;;;;8.10;2.15;;;;;;;;;;5038334;28;20021;-63
2022/04/09 08:35:03;;;;;;;6.35;2.13;;;;;;;;;;5044945;28;20072;-62
2022/04/09 08:37:28;;;;;;;7.55;1.40;;;;;;;;;;5045492;28;20040;-62
2022/04/09 08:39:55;;;;;;;11.48;2.65;;;;;;;;;;5037846;28;20021;-63
2022/04/09 08:42:24;;;;;;;7.30;1.60;;;;;;;;;;5049785;28;20104;-64
2022/04/09 08:44:49;;;;;;;6.72;2.88;;;;;;;;;;5040154;28;20024;-62
2022/04/09 08:47:15;;;;;;;5.07;2.38;;;;;;;;;;5042890;28;20029;-63
2022/04/09 08:49:45;;;;;;;12.73;2.33;;;;;;;;;;5031830;28;20029;-63
2022/04/09 08:52:11;;;;;;;8.88;2.17;;;;;;;;;;5032417;28;20037;-63
2022/04/09 08:54:38;;;;;;;6.55;1.80;;;;;;;;;;5032794;28;20029;-62
2022/04/09 08:57:04;;;;;;;7.90;1.88;;;;;;;;;;5031613;28;20097;-63
2022/04/09 08:59:30;;;;;;;9.50;1.90;;;;;;;;;;5033201;28;20022;-62
2022/04/09 09:01:56;;;;;;;6.80;1.30;;;;;;;;;;5033404;28;20021;-62
2022/04/09 09:04:21;;;;;;;4.18;1.45;;;;;;;;;;5032371;28;20037;-61
2022/04/09 09:06:47;;;;;;;5.82;1.25;;;;;;;;;;5032664;28;20036;-62
2022/04/09 09:09:32;;;;;;;7.88;2.00;;;;;;;;;;5031817;28;20347;-62
2022/04/09 09:12:03;;;;;;;4.38;1.58;;;;;;;;;;5032887;28;20104;-63
2022/04/09 09:14:30;;;;;;;7.22;2.08;;;;;;;;;;5033232;28;20021;-64
2022/04/09 09:17:00;;;;;;;6.05;1.98;;;;;;;;;;5033081;28;20029;-63
2022/04/09 09:19:47;;;;;;;7.73;1.90;;;;;;;;;;5032612;28;20048;-62
2022/04/09 09:22:13;;;;;;;9.07;2.20;;;;;;;;;;5032860;28;20021;-63
2022/04/09 09:24:39;;;;;;;6.10;1.67;;;;;;;;;;5032899;28;20029;-63
2022/04/09 09:27:05;;;;;;;5.65;1.85;;;;;;;;;;5032957;28;20116;-63
2022/04/09 09:29:33;;;;;;;10.73;1.52;;;;;;;;;;5032823;28;20108;-63
2022/04/09 09:32:01;;;;;;;6.47;1.63;;;;;;;;;;5032740;28;20018;-63
2022/04/09 09:34:28;;;;;;;6.57;2.00;;;;;;;;;;5032950;28;20025;-62
2022/04/09 09:36:54;;;;;;;5.10;1.75;;;;;;;;;;5032810;28;20022;-62
2022/04/09 09:39:23;;;;;;;5.05;2.08;;;;;;;;;;5032774;28;20160;-62
2022/04/09 09:42:01;;;;;;;8.68;2.20;;;;;;;;;;5032894;28;20037;-62
2022/04/09 09:44:32;;;;;;;3.70;1.30;;;;;;;;;;5032864;28;20030;-64
2022/04/09 09:47:12;;;;;;;11.10;1.52;;;;;;;;;;5032224;28;20055;-62
2022/04/09 09:49:56;;;;;;;5.45;2.00;;;;;;;;;;5032827;28;20033;-62
2022/04/09 09:52:32;;;;;;;3.65;1.52;;;;;;;;;;5032516;28;20471;-62
2022/04/09 09:55:00;;;;;;;5.63;1.55;;;;;;;;;;5032580;28;20025;-63
2022/04/09 09:57:28;;;;;;;10.00;1.70;;;;;;;;;;5032689;28;20107;-63
2022/04/09 10:00:04;;;;;;;3.33;1.33;;;;;;;;;;5028908;28;20053;-63
2022/04/09 10:02:30;;;;;;;8.73;1.75;;;;;;;;;;5027678;28;20037;-63
2022/04/09 10:04:56;;;;;;;5.38;1.30;;;;;;;;;;5031607;28;20103;-64
2022/04/09 10:07:23;;;;;;;5.85;1.40;;;;;;;;;;5032339;28;20029;-62
2022/04/09 10:09:49;;;;;;;5.22;1.70;;;;;;;;;;5031232;28;20459;-63
2022/04/09 10:12:23;;;;;;;2.83;1.33;;;;;;;;;;5032453;28;20026;-64
2022/04/09 10:14:58;;;;;;;4.25;1.52;;;;;;;;;;5032534;28;20056;-63
2022/04/09 10:17:25;;;;;;;4.65;1.27;;;;;;;;;;5032301;28;20040;-64
2022/04/09 10:19:55;;;;;;;2.72;1.73;;;;;;;;;;5032193;28;20569;-64
2022/04/09 10:22:22;;;;;;;;;;;;;;;;;;5035165;28;20467;-64
2022/04/09 10:24:49;;;;;;;4.82;1.70;;;;;;;;;;5036307;28;19916;-63
2022/04/09 10:27:37;;;;;;;5.75;1.63;;;;;;;;;;5036140;28;20116;-63
2022/04/09 10:30:24;;;;;;;6.15;1.90;;;;;;;;;;5036080;28;20457;-63
2022/04/09 10:32:56;;;;;;;3.97;1.80;;;;;;;;;;5036220;28;20022;-64
2022/04/09 10:35:40;;;;;;;5.18;1.77;;;;;;;;;;5035809;28;20524;-63
2022/04/09 10:38:09;;;;;;;4.57;1.33;;;;;;;;;;5036187;28;20095;-63
2022/04/09 10:40:49;;;;;;;4.93;1.35;;;;;;;;;;5035991;28;20048;-63
2022/04/09 10:43:24;;;;;;;5.93;2.00;;;;;;;;;;5036139;28;20022;-63
2022/04/09 10:46:09;;;;;;;7.38;1.73;;;;;;;;;;5035621;28;20072;-62
2022/04/09 10:48:47;;;;;;;4.95;1.65;;;;;;;;;;5035857;28;20025;-63
2022/04/09 10:51:18;;;;;;;4.53;1.25;;;;;;;;;;5035984;28;20028;-63
2022/04/09 10:53:49;;;;;;;7.97;1.60;;;;;;;;;;5035710;28;20371;-62
2022/04/09 10:56:24;;;;;;;5.10;2.00;;;;;;;;;;5035807;28;20496;-64
2022/04/09 10:59:28;;;;;;;10.13;3.55;;;;;;;;;;5035177;28;20022;-63
2022/04/09 11:01:54;;;;;;;11.52;3.70;;;;;;;;;;5034367;28;20061;-63
2022/04/09 11:04:38;;;;;;;6.22;2.88;;;;;;;;;;5035503;28;20029;-61
2022/04/09 11:07:10;;;;;;;8.20;3.28;;;;;;;;;;5034972;28;20451;-63
2022/04/09 11:09:49;;;;;;;4.32;1.70;;;;;;;;;;5031829;28;20029;-63
2022/04/09 11:12:16;;;;;;;4.75;1.75;;;;;;;;;;5026032;28;20034;-63
2022/04/09 11:14:44;;;;;;;2.50;1.20;;;;;;;;;;5025309;28;20053;-63
2022/04/09 11:17:36;;;;;;;4.95;1.90;;;;;;;;;;5023942;28;20569;-62
2022/04/09 11:20:10;;;;;;;8.35;1.92;;;;;;;;;;5027742;28;20049;-63
2022/04/09 11:22:38;;;;;;;4.57;2.13;;;;;;;;;;5025847;28;20034;-63
2022/04/09 11:25:18;;;;;;;4.28;1.60;;;;;;;;;;5022827;28;20060;-62
2022/04/09 11:27:43;;;;;;;5.55;2.10;;;;;;;;;;5033258;28;20033;-62
2022/04/09 11:30:09;;;;;;;4.82;2.10;;;;;;;;;;5034494;28;20025;-62
2022/04/09 11:32:38;;;;;;;6.10;2.05;;;;;;;;;;5033789;28;20021;-62
2022/04/09 11:35:08;;;;;;;7.03;2.15;;;;;;;;;;5034237;28;20032;-62
2022/04/09 11:37:41;;;;;;;3.22;1.45;;;;;;;;;;5032112;28;20021;-63
2022/04/09 11:40:09;;;;;;;4.38;1.98;;;;;;;;;;5034385;28;20106;-63
2022/04/09 11:42:47;;;;;;;8.80;2.58;;;;;;;;;;5032536;28;20036;-63
2022/04/09 11:45:17;;;;;;;4.55;2.00;;;;;;;;;;5030824;28;20036;-62
2022/04/09 11:47:42;;;;;;;4.97;1.57;;;;;;;;;;5031520;28;20079;-63
2022/04/09 11:50:11;;;;;;;7.85;2.40;;;;;;;;;;5034102;28;20112;-63
2022/04/09 11:52:38;;;;;;;6.70;1.92;;;;;;;;;;5033905;28;20028;-63
2022/04/09 11:55:08;;;;;;;4.32;2.08;;;;;;;;;;5024761;28;20025;-62
2022/04/09 11:57:33;;;;;;;2.95;1.40;;;;;;;;;;5024619;28;20144;-62
2022/04/09 12:00:00;;;;;;;1.98;0.90;;;;;;;;;;5022930;28;20106;-63
2022/04/09 12:02:27;;;;;;;3.22;1.17;;;;;;;;;;5034189;28;20108;-62
2022/04/09 12:04:54;;;;;;;2.35;1.13;;;;;;;;;;5034186;28;20105;-62
2022/04/09 12:07:21;;;;;;;3.13;1.42;;;;;;;;;;5034293;28;20374;-63
2022/04/09 12:09:47;;;;;;;3.13;1.48;;;;;;;;;;5034054;28;20033;-63
2022/04/09 12:12:12;;;;;;;4.97;1.80;;;;;;;;;;5033719;28;20102;-62
2022/04/09 12:14:41;;;;;;;3.55;1.33;;;;;;;;;;5034019;28;20044;-63
2022/04/09 12:17:12;;;;;;;6.88;1.10;;;;;;;;;;5033379;28;20052;-63
2022/04/09 12:19:40;;;;;;;2.88;0.98;;;;;;;;;;5033696;28;20037;-62
2022/04/09 12:22:23;;;;;;;6.75;1.88;;;;;;;;;;5033883;28;20035;-64
2022/04/09 12:24:58;;;;;;;1.80;1.35;;;;;;;;;;5033798;28;20482;-63
2022/04/09 12:27:46;;;;;;;3.50;1.13;;;;;;;;;;5033620;28;20033;-63
2022/04/09 12:30:12;;;;;;;5.47;1.50;;;;;;;;;;5033597;28;20079;-63
2022/04/09 12:32:41;;;;;;;3.42;1.40;;;;;;;;;;5033625;28;20060;-63
2022/04/09 12:35:06;;;;;;;2.60;1.17;;;;;;;;;;5033514;28;20438;-63
2022/04/09 12:37:45;;;;;;;3.85;1.30;;;;;;;;;;5033662;28;20053;-63
2022/04/09 12:40:15;;;;;;;3.63;1.13;;;;;;;;;;5033271;28;20036;-63
2022/04/09 12:42:41;;;;;;;7.03;1.63;;;;;;;;;;5033590;28;20482;-63
2022/04/09 12:45:20;;;;;;;8.93;1.55;;;;;;;;;;5033332;28;20064;-64
2022/04/09 12:47:59;;;;;;;5.55;1.20;;;;;;;;;;5032964;28;20037;-63
2022/04/09 12:50:34;;;;;;;4.57;1.40;;;;;;;;;;5033166;28;20035;-63
2022/04/09 12:53:02;;;;;;;5.15;1.33;;;;;;;;;;5033419;28;20502;-63
2022/04/09 12:55:30;;;;;;;2.65;1.00;;;;;;;;;;5033051;28;20036;-62
2022/04/09 12:57:56;;;;;;;3.33;1.35;;;;;;;;;;5033157;28;20557;-63
2022/04/09 13:00:23;;;;;;;4.15;1.33;;;;;;;;;;5033125;28;20044;-62
2022/04/09 13:02:50;;;;;;;3.05;1.48;;;;;;;;;;5024002;28;20035;-63
2022/04/09 13:05:17;;;;;;;4.43;1.33;;;;;;;;;;5032129;28;20104;-63
2022/04/09 13:07:43;;;;;;;1.88;1.02;;;;;;;;;;5032654;28;20033;-62
2022/04/09 13:10:10;;;;;;;1.92;1.08;;;;;;;;;;5032827;28;20096;-63
2022/04/09 13:12:37;;;;;;;2.90;1.20;;;;;;;;;;5033162;28;20219;-63
2022/04/09 13:15:03;;;;;;;6.80;2.92;;;;;;;;;;5033027;28;20036;-62
2022/04/09 13:17:33;;;;;;;5.03;2.30;;;;;;;;;;5033242;28;20025;-63
2022/04/09 13:20:00;;;;;;;6.80;2.40;;;;;;;;;;5032707;28;20041;-64
2022/04/09 13:22:25;;;;;;;4.53;1.48;;;;;;;;;;5032789;28;20029;-64
2022/04/09 13:24:51;;;;;;;1.80;1.20;;;;;;;;;;5032743;28;20094;-63
2022/04/09 13:27:16;;;;;;;3.30;1.60;;;;;;;;;;5033006;28;20036;-62
2022/04/09 13:29:42;;;;;;;2.50;1.40;;;;;;;;;;5032945;28;20029;-62
2022/04/09 13:32:07;;;;;;;1.10;0.75;;;;;;;;;;5024139;28;20026;-63
2022/04/09 13:34:33;;;;;;;2.28;0.70;;;;;;;;;;5018154;28;20137;-63
2022/04/09 13:36:58;;;;;;;0.70;0.50;;;;;;;;;;5013004;28;20399;-62
2022/04/09 13:39:24;;;;;;;0.93;0.70;;;;;;;;;;5012769;28;20069;-64
2022/04/09 13:41:49;;;;;;;2.35;0.80;;;;;;;;;;5013040;28;20398;-62
2022/04/09 13:44:15;;;;;;;1.00;0.80;;;;;;;;;;5012788;28;20021;-65
2022/04/09 13:46:44;;;;;;;1.35;0.90;;;;;;;;;;5012502;28;20128;-63
2022/04/09 13:49:09;;;;;;;1.55;1.17;;;;;;;;;;5012952;28;20037;-62
2022/04/09 13:51:35;;;;;;;3.10;1.13;;;;;;;;;;5012827;28;20463;-62
2022/04/09 13:54:01;;;;;;;2.75;0.90;;;;;;;;;;5012653;28;20022;-63
2022/04/09 13:56:26;;;;;;;2.20;0.90;;;;;;;;;;5013673;28;20068;-61
2022/04/09 13:58:52;;;;;;;2.17;0.73;;;;;;;;;;5016849;28;20076;-63
2022/04/09 14:01:17;;;;;;;1.10;0.80;;;;;;;;;;5016899;28;20022;-63
2022/04/09 14:03:43;;;;;;;7.30;2.45;;;;;;;;;;5016852;28;20029;-63
2022/04/09 14:06:09;;;;;;;3.35;1.30;;;;;;;;;;5016691;28;20410;-62
2022/04/09 14:08:35;;;;;;;2.30;1.33;;;;;;;;;;5016371;28;20112;-62
2022/04/09 14:11:00;;;;;;;6.88;3.10;;;;;;;;;;5016386;28;20486;-62
2022/04/09 14:13:26;;;;;;;7.82;4.38;;;;;;;;;;5016738;28;20117;-64
2022/04/09 14:15:51;;;;;;;4.68;2.67;;;;;;;;;;5016412;28;20034;-62
2022/04/09 14:18:17;;;;;;;6.22;2.63;;;;;;;;;;5016482;28;20108;-63
2022/04/09 14:20:42;;;;;;;4.50;1.48;;;;;;;;;;5034794;28;20494;-63
2022/04/09 14:23:08;;;;;;;4.85;1.52;;;;;;;;;;5036025;28;20036;-63
2022/04/09 14:25:34;;;;;;;3.97;1.60;;;;;;;;;;5035602;28;20029;-62
2022/04/09 14:28:02;;;;;;;2.50;1.27;;;;;;;;;;5036025;28;20025;-64
2022/04/09 14:30:28;;;;;;;3.08;1.00;;;;;;;;;;5035951;28;20044;-63
2022/04/09 14:32:54;;;;;;;2.35;1.30;;;;;;;;;;5036029;28;20482;-63
2022/04/09 14:35:20;;;;;;;5.38;1.23;;;;;;;;;;5035965;28;20475;-62
2022/04/09 14:37:47;;;;;;;2.03;0.70;;;;;;;;;;5035702;28;20036;-63
2022/04/09 14:40:13;;;;;;;1.70;0.90;;;;;;;;;;5035832;28;20034;-63
2022/04/09 14:42:39;;;;;;;2.65;1.40;;;;;;;;;;5034712;28;20025;-63
2022/04/09 14:45:10;;;;;;;4.65;2.78;;;;;;;;;;5035605;28;20025;-63